createdAt,value
2019-05-19T00:01:12.340Z,12.41
2019-05-19T00:03:40.818Z,12.48
2019-05-19T00:06:09.331Z,12.55
2019-05-19T00:08:37.841Z,12.59
2019-05-19T00:11:06.286Z,12.48
2019-05-19T00:13:34.983Z,12.50
2019-05-19T00:16:06.264Z,12.53
2019-05-19T00:18:34.705Z,12.61
2019-05-19T00:21:03.136Z,12.58
2019-05-19T00:23:31.556Z,12.51
2019-05-19T00:25:59.994Z,12.43
2019-05-19T00:28:28.410Z,12.37
2019-05-19T00:30:56.845Z,12.33
2019-05-19T00:33:25.262Z,12.27
2019-05-19T00:35:53.700Z,12.29
2019-05-19T00:38:22.235Z,12.25
2019-05-19T00:40:50.671Z,12.22
2019-05-19T00:43:19.158Z,12.18
2019-05-19T00:45:47.632Z,12.13
2019-05-19T00:48:16.077Z,12.15
2019-05-19T00:50:46.438Z,12.09
2019-05-19T00:53:14.867Z,12.07
2019-05-19T00:55:43.549Z,11.98
2019-05-19T00:58:13.333Z,11.90
2019-05-19T01:00:43.199Z,11.89
2019-05-19T01:03:11.590Z,11.76
2019-05-19T01:05:40.022Z,11.65
2019-05-19T01:08:08.444Z,11.50
2019-05-19T01:10:36.927Z,11.60
2019-05-19T01:13:05.363Z,11.57
2019-05-19T01:15:33.800Z,11.56
2019-05-19T01:18:02.237Z,11.40
2019-05-19T01:20:30.866Z,11.54
2019-05-19T01:22:59.313Z,11.57
2019-05-19T01:25:27.792Z,11.43
2019-05-19T01:27:56.281Z,11.50
2019-05-19T01:30:24.869Z,11.56
2019-05-19T01:32:53.302Z,11.51
2019-05-19T01:35:21.790Z,11.52
2019-05-19T01:37:50.237Z,11.41
2019-05-19T01:40:18.676Z,11.32
2019-05-19T01:42:47.149Z,11.34
2019-05-19T01:45:16.541Z,11.18
2019-05-19T01:47:48.898Z,11.14
2019-05-19T01:50:18.596Z,11.13
2019-05-19T01:52:47.299Z,11.16
2019-05-19T01:55:15.893Z,11.30
2019-05-19T01:57:44.363Z,11.14
2019-05-19T02:00:13.229Z,11.22
2019-05-19T02:02:41.664Z,11.06
2019-05-19T02:05:10.634Z,10.96
2019-05-19T02:07:39.080Z,11.00
2019-05-19T02:10:09.562Z,11.04
2019-05-19T02:12:38.095Z,11.07
2019-05-19T02:15:07.452Z,11.06
2019-05-19T02:17:36.068Z,11.04
2019-05-19T02:20:07.580Z,11.11
2019-05-19T02:22:36.032Z,11.11
2019-05-19T02:25:06.187Z,11.07
2019-05-19T02:27:34.617Z,11.07
2019-05-19T02:30:03.864Z,11.12
2019-05-19T02:32:32.314Z,11.01
2019-05-19T02:35:00.737Z,10.99
2019-05-19T02:37:29.183Z,10.97
2019-05-19T02:39:57.620Z,10.83
2019-05-19T02:42:28.430Z,10.87
2019-05-19T02:44:57.650Z,10.66
2019-05-19T02:47:27.387Z,10.67
2019-05-19T02:49:57.264Z,10.81
2019-05-19T02:52:28.931Z,10.72
2019-05-19T02:54:59.303Z,10.85
2019-05-19T02:57:28.477Z,10.76
2019-05-19T02:59:57.467Z,10.86
2019-05-19T03:02:25.893Z,10.83
2019-05-19T03:04:54.317Z,10.81
2019-05-19T03:07:22.800Z,10.68
2019-05-19T03:09:51.261Z,10.69
2019-05-19T03:12:19.709Z,10.56
2019-05-19T03:14:48.127Z,10.57
2019-05-19T03:17:16.588Z,10.44
2019-05-19T03:19:45.030Z,10.59
2019-05-19T03:22:13.491Z,10.57
2019-05-19T03:24:41.941Z,10.46
2019-05-19T03:27:10.422Z,10.48
2019-05-19T03:29:40.535Z,10.48
2019-05-19T03:32:13.546Z,10.48
2019-05-19T03:34:42.032Z,10.48
2019-05-19T03:37:10.502Z,10.38
2019-05-19T03:39:38.932Z,10.51
2019-05-19T03:42:10.434Z,10.63
2019-05-19T03:44:37.555Z,10.59
2019-05-19T03:47:06.010Z,10.52
2019-05-19T03:49:34.448Z,10.54
2019-05-19T03:52:02.904Z,10.55
2019-05-19T03:54:31.348Z,10.58
2019-05-19T03:56:59.817Z,10.54
2019-05-19T03:59:28.249Z,10.54
2019-05-19T04:01:56.709Z,10.63
2019-05-19T04:04:26.730Z,10.67
2019-05-19T04:06:55.190Z,10.66
2019-05-19T04:09:23.638Z,10.47
2019-05-19T04:11:52.083Z,10.55
2019-05-19T04:14:20.544Z,10.55
2019-05-19T04:16:52.181Z,10.68
2019-05-19T04:19:20.588Z,10.63
2019-05-19T04:21:49.739Z,10.70
2019-05-19T04:24:18.364Z,10.83
2019-05-19T04:26:46.803Z,10.83
2019-05-19T04:29:15.251Z,10.92
2019-05-19T04:31:49.595Z,10.95
2019-05-19T04:34:18.061Z,10.88
2019-05-19T04:36:46.493Z,10.71
2019-05-19T04:39:14.920Z,10.89
2019-05-19T04:41:43.369Z,10.85
2019-05-19T04:44:11.876Z,11.01
2019-05-19T04:46:40.287Z,11.22
2019-05-19T04:49:08.738Z,11.13
2019-05-19T04:51:37.214Z,11.18
2019-05-19T04:54:05.629Z,11.10
2019-05-19T04:56:34.059Z,11.16
2019-05-19T04:59:02.574Z,11.29
2019-05-19T05:01:31.009Z,11.24
2019-05-19T05:03:59.464Z,11.33
2019-05-19T05:06:27.899Z,11.41
2019-05-19T05:08:56.342Z,11.28
2019-05-19T05:11:24.765Z,11.37
2019-05-19T05:13:53.235Z,11.50
2019-05-19T05:16:21.683Z,11.49
2019-05-19T05:18:50.119Z,11.32
2019-05-19T05:21:18.587Z,11.33
2019-05-19T05:23:47.133Z,11.42
2019-05-19T05:26:15.583Z,11.42
2019-05-19T05:28:44.029Z,11.60
2019-05-19T05:31:15.437Z,11.66
2019-05-19T05:33:42.624Z,11.50
2019-05-19T05:36:11.056Z,11.56
2019-05-19T05:38:39.484Z,11.67
2019-05-19T05:41:07.933Z,11.64
2019-05-19T05:43:36.380Z,11.77
2019-05-19T05:46:04.843Z,12.01
2019-05-19T05:48:33.314Z,12.12
2019-05-19T05:51:01.757Z,12.18
2019-05-19T05:53:30.188Z,12.41
2019-05-19T05:55:58.610Z,12.51
2019-05-19T05:58:27.105Z,13.09
2019-05-19T06:00:55.525Z,13.30
2019-05-19T06:03:23.954Z,12.96
2019-05-19T06:05:52.414Z,13.14
2019-05-19T06:08:20.860Z,13.43
2019-05-19T06:10:49.288Z,13.45
2019-05-19T06:13:17.776Z,13.68
2019-05-19T06:15:46.187Z,13.76
2019-05-19T06:18:14.658Z,13.87
2019-05-19T06:20:43.121Z,14.09
2019-05-19T06:23:11.533Z,13.71
2019-05-19T06:25:40.032Z,13.66
2019-05-19T06:28:08.432Z,13.77
2019-05-19T06:30:36.954Z,14.33
2019-05-19T06:33:05.608Z,14.44
2019-05-19T06:35:34.168Z,14.52
2019-05-19T06:38:03.107Z,14.63
2019-05-19T06:40:31.718Z,14.57
2019-05-19T06:43:01.919Z,14.73
2019-05-19T06:45:31.899Z,14.60
2019-05-19T06:48:00.342Z,14.76
2019-05-19T06:50:28.848Z,14.80
2019-05-19T06:53:12.837Z,15.11
2019-05-19T06:55:28.700Z,15.23
2019-05-19T06:57:57.125Z,15.48
2019-05-19T07:00:25.629Z,15.23
2019-05-19T07:02:54.058Z,15.56
2019-05-19T07:05:22.606Z,15.63
2019-05-19T07:07:51.002Z,15.70
2019-05-19T07:10:19.486Z,15.68
2019-05-19T07:12:47.957Z,15.90
2019-05-19T07:15:16.964Z,15.99
2019-05-19T07:17:45.453Z,16.08
2019-05-19T07:20:13.965Z,16.26
2019-05-19T07:22:42.546Z,16.33
2019-05-19T07:25:14.300Z,16.28
2019-05-19T07:27:42.719Z,16.63
2019-05-19T07:30:11.396Z,16.76
2019-05-19T07:32:39.884Z,16.78
2019-05-19T07:35:08.733Z,16.76
2019-05-19T07:37:37.144Z,16.86
2019-05-19T07:40:06.580Z,17.19
2019-05-19T07:42:36.818Z,17.36
2019-05-19T07:45:07.415Z,17.34
2019-05-19T07:47:35.878Z,17.52
2019-05-19T07:50:05.452Z,17.72
2019-05-19T07:52:33.932Z,17.79
2019-05-19T07:55:02.383Z,17.90
2019-05-19T07:57:30.816Z,18.16
2019-05-19T07:59:59.246Z,18.21
2019-05-19T08:02:27.722Z,18.46
2019-05-19T08:04:56.220Z,18.53
2019-05-19T08:07:26.312Z,18.64
2019-05-19T08:09:54.789Z,18.93
2019-05-19T08:12:23.227Z,18.98
2019-05-19T08:14:51.665Z,19.08
2019-05-19T08:17:21.480Z,19.32
2019-05-19T08:19:49.972Z,19.42
2019-05-19T08:22:18.518Z,19.54
2019-05-19T08:24:47.070Z,19.58
2019-05-19T08:27:15.507Z,19.30
2019-05-19T08:29:43.982Z,19.86
2019-05-19T08:32:12.415Z,19.83
2019-05-19T08:34:40.900Z,20.54
2019-05-19T08:37:09.484Z,20.73
2019-05-19T08:39:38.013Z,21.14
2019-05-19T08:42:06.493Z,21.23
2019-05-19T08:44:34.916Z,21.24
2019-05-19T08:47:03.376Z,21.18
2019-05-19T08:49:31.886Z,21.09
2019-05-19T08:52:01.724Z,21.05
2019-05-19T08:54:30.167Z,20.88
2019-05-19T08:56:58.622Z,20.51
2019-05-19T08:59:27.161Z,20.45
2019-05-19T09:01:58.381Z,20.89
2019-05-19T09:04:26.819Z,21.45
2019-05-19T09:06:55.292Z,21.56
2019-05-19T09:09:23.864Z,21.74
2019-05-19T09:11:53.910Z,21.92
2019-05-19T09:14:22.495Z,21.90
2019-05-19T09:16:50.937Z,21.17
2019-05-19T09:19:19.371Z,21.34
2019-05-19T09:21:47.837Z,21.54
2019-05-19T09:24:29.469Z,20.95
2019-05-19T09:26:46.533Z,21.36
2019-05-19T09:29:14.964Z,20.69
2019-05-19T09:31:43.441Z,20.67
2019-05-19T09:34:11.917Z,21.51
2019-05-19T09:36:40.400Z,22.24
2019-05-19T09:39:08.887Z,22.57
2019-05-19T09:41:37.340Z,23.04
2019-05-19T09:44:05.849Z,23.25
2019-05-19T09:46:34.304Z,23.38
2019-05-19T09:49:20.549Z,22.82
2019-05-19T09:51:49.024Z,22.35
2019-05-19T09:54:17.515Z,23.22
2019-05-19T09:56:45.976Z,23.38
2019-05-19T09:59:15.837Z,23.35
2019-05-19T10:01:44.214Z,23.01
2019-05-19T10:04:12.706Z,23.32
2019-05-19T10:06:41.131Z,22.64
2019-05-19T10:09:09.888Z,22.98
2019-05-19T10:12:00.275Z,22.93
2019-05-19T10:14:28.683Z,22.29
2019-05-19T10:16:57.286Z,22.89
2019-05-19T10:19:25.729Z,23.21
2019-05-19T10:21:54.343Z,22.30
2019-05-19T10:24:22.909Z,22.78
2019-05-19T10:26:51.720Z,22.59
2019-05-19T10:29:20.136Z,22.86
2019-05-19T10:31:48.666Z,23.16
2019-05-19T10:34:17.209Z,23.13
2019-05-19T10:36:45.709Z,23.75
2019-05-19T10:39:14.179Z,23.87
2019-05-19T10:41:42.868Z,23.94
2019-05-19T10:44:11.256Z,23.90
2019-05-19T10:46:39.766Z,24.07
2019-05-19T10:49:13.652Z,23.35
2019-05-19T10:51:42.164Z,23.49
2019-05-19T10:54:10.602Z,23.45
2019-05-19T10:56:39.026Z,23.09
2019-05-19T10:59:07.547Z,22.18
2019-05-19T11:01:35.930Z,22.19
2019-05-19T11:04:04.530Z,22.73
2019-05-19T11:06:32.803Z,23.63
2019-05-19T11:09:01.222Z,24.10
2019-05-19T11:11:29.743Z,23.94
2019-05-19T11:13:58.327Z,23.87
2019-05-19T11:16:26.850Z,24.19
2019-05-19T11:18:55.370Z,24.36
2019-05-19T11:21:23.773Z,24.31
2019-05-19T11:23:53.771Z,24.35
2019-05-19T11:26:22.308Z,24.56
2019-05-19T11:28:50.812Z,24.56
2019-05-19T11:31:19.343Z,24.53
2019-05-19T11:33:47.902Z,24.56
2019-05-19T11:36:16.331Z,24.76
2019-05-19T11:38:44.756Z,25.04
2019-05-19T11:41:13.204Z,24.19
2019-05-19T11:43:41.655Z,24.74
2019-05-19T11:46:10.099Z,24.81
2019-05-19T11:48:38.658Z,25.64
2019-05-19T11:51:07.062Z,25.70
2019-05-19T11:53:39.779Z,25.39
2019-05-19T11:56:11.407Z,24.54
2019-05-19T11:58:38.406Z,24.04
2019-05-19T12:01:06.853Z,25.24
2019-05-19T12:03:35.350Z,26.24
2019-05-19T12:06:03.799Z,26.39
2019-05-19T12:08:32.234Z,25.92
2019-05-19T12:11:00.671Z,26.32
2019-05-19T12:13:34.924Z,25.44
2019-05-19T12:16:02.630Z,25.38
2019-05-19T12:18:32.360Z,24.42
2019-05-19T12:21:00.846Z,23.95
2019-05-19T12:23:29.295Z,24.52
2019-05-19T12:25:57.793Z,25.42
2019-05-19T12:28:26.190Z,26.35
2019-05-19T12:30:54.721Z,27.49
2019-05-19T12:33:23.166Z,26.23
2019-05-19T12:35:51.599Z,26.47
2019-05-19T12:38:20.043Z,25.37
2019-05-19T12:40:48.493Z,26.12
2019-05-19T12:43:17.059Z,27.48
2019-05-19T12:45:45.542Z,27.38
2019-05-19T12:48:13.950Z,27.13
2019-05-19T12:50:42.394Z,28.08
2019-05-19T12:53:10.814Z,27.95
2019-05-19T12:55:39.235Z,26.72
2019-05-19T12:58:07.704Z,25.87
2019-05-19T13:00:39.198Z,24.84
2019-05-19T13:03:10.288Z,24.96
2019-05-19T13:05:41.337Z,24.52
2019-05-19T13:08:11.628Z,24.47
2019-05-19T13:10:40.165Z,23.86
2019-05-19T13:13:08.608Z,23.94
2019-05-19T13:15:37.056Z,23.70
2019-05-19T13:18:05.494Z,23.62
2019-05-19T13:20:33.923Z,23.86
2019-05-19T13:23:02.400Z,25.39
2019-05-19T13:25:30.916Z,26.06
2019-05-19T13:27:59.374Z,28.01
2019-05-19T13:30:27.922Z,28.94
2019-05-19T13:32:56.448Z,26.80
2019-05-19T13:35:30.738Z,25.72
2019-05-19T13:37:59.152Z,24.72
2019-05-19T13:40:27.606Z,24.50
2019-05-19T13:42:56.086Z,24.33
2019-05-19T13:45:24.572Z,24.40
2019-05-19T13:47:53.149Z,24.64
2019-05-19T13:50:21.551Z,24.68
2019-05-19T13:52:51.263Z,24.22
2019-05-19T13:55:19.954Z,24.68
2019-05-19T13:57:48.409Z,24.70
2019-05-19T14:00:17.181Z,24.62
2019-05-19T14:02:45.645Z,24.90
2019-05-19T14:05:17.264Z,24.78
2019-05-19T14:07:45.755Z,24.50
2019-05-19T14:10:14.784Z,24.33
2019-05-19T14:12:43.297Z,24.49
2019-05-19T14:15:11.782Z,24.32
2019-05-19T14:17:40.224Z,24.19
2019-05-19T14:20:09.251Z,24.04
2019-05-19T14:22:37.761Z,24.02
2019-05-19T14:25:07.008Z,23.87
2019-05-19T14:27:35.414Z,23.81
2019-05-19T14:30:05.193Z,23.70
2019-05-19T14:32:33.818Z,23.56
2019-05-19T14:35:02.319Z,23.70
2019-05-19T14:37:30.789Z,23.66
2019-05-19T14:39:59.272Z,23.98
2019-05-19T14:42:45.598Z,24.06
2019-05-19T14:45:14.345Z,24.05
2019-05-19T14:47:42.778Z,24.07
2019-05-19T14:50:11.383Z,23.99
2019-05-19T14:52:40.560Z,23.94
2019-05-19T14:55:11.885Z,24.00
2019-05-19T14:57:44.953Z,23.86
2019-05-19T15:00:11.369Z,23.67
2019-05-19T15:02:39.787Z,24.01
2019-05-19T15:05:08.548Z,24.05
2019-05-19T15:07:36.959Z,24.25
2019-05-19T15:10:06.743Z,24.09
2019-05-19T15:12:36.794Z,24.02
2019-05-19T15:15:07.155Z,24.22
2019-05-19T15:17:37.220Z,24.00
2019-05-19T15:20:11.179Z,24.00
2019-05-19T15:22:39.615Z,23.97
2019-05-19T15:25:08.774Z,23.96
2019-05-19T15:27:37.379Z,24.02
2019-05-19T15:30:13.108Z,23.98
2019-05-19T15:32:37.943Z,24.17
2019-05-19T15:35:08.355Z,24.44
2019-05-19T15:37:36.779Z,23.99
2019-05-19T15:40:08.151Z,24.00
2019-05-19T15:42:39.335Z,23.86
2019-05-19T15:45:08.777Z,23.71
2019-05-19T15:47:37.263Z,23.65
2019-05-19T15:50:09.878Z,23.38
2019-05-19T15:52:38.316Z,23.25
2019-05-19T15:55:06.922Z,23.22
2019-05-19T15:57:35.620Z,23.11
2019-05-19T16:00:08.266Z,23.03
2019-05-19T16:02:36.873Z,22.70
2019-05-19T16:05:06.761Z,22.80
2019-05-19T16:07:35.208Z,22.60
2019-05-19T16:10:05.905Z,22.65
2019-05-19T16:12:33.563Z,22.66
2019-05-19T16:15:02.163Z,22.55
2019-05-19T16:17:30.694Z,22.52
2019-05-19T16:19:59.241Z,22.54
2019-05-19T16:22:27.634Z,22.47
2019-05-19T16:24:56.099Z,22.38
2019-05-19T16:27:24.607Z,22.41
2019-05-19T16:29:55.835Z,22.10
2019-05-19T16:32:28.806Z,22.05
2019-05-19T16:34:56.333Z,21.99
2019-05-19T16:37:26.522Z,21.83
2019-05-19T16:40:02.048Z,21.95
2019-05-19T16:42:32.231Z,22.23
2019-05-19T16:45:00.682Z,22.05
2019-05-19T16:47:29.132Z,21.94
2019-05-19T16:49:57.600Z,21.92
2019-05-19T16:52:26.024Z,21.87
2019-05-19T16:55:35.816Z,21.97
2019-05-19T16:58:28.857Z,21.94
2019-05-19T17:00:57.077Z,22.00
2019-05-19T17:03:25.545Z,22.04
2019-05-19T17:05:56.015Z,21.88
2019-05-19T17:08:24.538Z,21.72
2019-05-19T17:10:53.075Z,21.60
2019-05-19T17:13:21.630Z,21.97
2019-05-19T17:15:51.635Z,22.00
2019-05-19T17:18:20.211Z,21.96
2019-05-19T17:20:53.981Z,22.08
2019-05-19T17:23:22.454Z,21.96
2019-05-19T17:25:50.924Z,22.08
2019-05-19T17:28:19.433Z,22.23
2019-05-19T17:30:47.878Z,22.17
2019-05-19T17:33:16.353Z,22.22
2019-05-19T17:35:44.885Z,22.33
2019-05-19T17:38:13.315Z,22.39
2019-05-19T17:40:41.855Z,22.17
2019-05-19T17:43:10.351Z,22.21
2019-05-19T17:45:38.875Z,22.00
2019-05-19T17:48:10.111Z,21.87
2019-05-19T17:50:37.648Z,21.68
2019-05-19T17:53:06.303Z,21.51
2019-05-19T17:55:38.157Z,21.13
2019-05-19T17:58:06.662Z,21.03
2019-05-19T18:00:45.991Z,20.84
2019-05-19T18:03:14.503Z,20.69
2019-05-19T18:05:43.049Z,20.75
2019-05-19T18:08:11.519Z,20.95
2019-05-19T18:10:39.969Z,20.94
2019-05-19T18:13:08.403Z,20.94
2019-05-19T18:15:37.326Z,20.76
2019-05-19T18:18:05.805Z,20.92
2019-05-19T18:20:34.365Z,20.87
2019-05-19T18:23:02.823Z,20.79
2019-05-19T18:25:31.382Z,20.53
2019-05-19T18:27:59.871Z,20.58
2019-05-19T18:30:29.601Z,20.57
2019-05-19T18:32:58.014Z,20.42
2019-05-19T18:35:26.456Z,20.39
2019-05-19T18:37:54.905Z,20.25
2019-05-19T18:40:23.418Z,20.15
2019-05-19T18:42:51.799Z,20.21
2019-05-19T18:45:20.259Z,20.17
2019-05-19T18:47:48.746Z,20.26
2019-05-19T18:50:17.331Z,20.09
2019-05-19T18:52:45.768Z,20.11
2019-05-19T18:55:14.277Z,19.91
2019-05-19T18:57:42.775Z,19.79
2019-05-19T19:00:11.456Z,19.62
2019-05-19T19:02:40.391Z,19.30
2019-05-19T19:05:09.013Z,19.36
2019-05-19T19:07:55.341Z,19.45
2019-05-19T19:10:23.870Z,19.35
2019-05-19T19:12:52.335Z,19.27
2019-05-19T19:15:20.810Z,19.42
2019-05-19T19:17:49.242Z,19.44
2019-05-19T19:20:17.755Z,19.32
2019-05-19T19:22:46.226Z,19.15
2019-05-19T19:25:14.632Z,19.14
2019-05-19T19:27:43.168Z,18.89
2019-05-19T19:30:12.650Z,18.72
2019-05-19T19:32:41.110Z,18.51
2019-05-19T19:35:10.079Z,18.29
2019-05-19T19:37:38.526Z,18.18
2019-05-19T19:40:08.573Z,18.52
2019-05-19T19:42:36.993Z,18.60
2019-05-19T19:45:06.957Z,18.58
2019-05-19T19:47:35.792Z,18.61
2019-05-19T19:50:09.092Z,18.33
2019-05-19T19:52:37.521Z,18.35
2019-05-19T19:55:09.009Z,18.50
2019-05-19T19:57:37.428Z,18.54
2019-05-19T20:00:17.978Z,18.60
2019-05-19T20:02:38.749Z,18.26
2019-05-19T20:05:08.267Z,18.45
2019-05-19T20:07:36.692Z,18.15
2019-05-19T20:10:08.703Z,18.27
2019-05-19T20:12:37.563Z,18.14
2019-05-19T20:15:07.107Z,18.07
2019-05-19T20:17:36.259Z,18.14
2019-05-19T20:20:06.676Z,18.22
2019-05-19T20:22:35.146Z,18.22
2019-05-19T20:25:03.991Z,18.16
2019-05-19T20:27:32.460Z,18.05
2019-05-19T20:30:00.875Z,17.98
2019-05-19T20:32:29.299Z,18.05
2019-05-19T20:34:57.763Z,17.66
2019-05-19T20:37:26.266Z,17.33
2019-05-19T20:39:54.669Z,17.35
2019-05-19T20:42:23.102Z,17.22
2019-05-19T20:44:51.537Z,17.23
2019-05-19T20:47:19.990Z,17.27
2019-05-19T20:49:48.407Z,17.50
2019-05-19T20:52:16.847Z,17.69
2019-05-19T20:54:45.271Z,17.49
2019-05-19T20:57:15.231Z,17.18
2019-05-19T20:59:43.623Z,16.97
2019-05-19T21:02:12.034Z,16.78
2019-05-19T21:04:40.476Z,16.82
2019-05-19T21:07:09.085Z,16.66
2019-05-19T21:09:37.510Z,17.05
2019-05-19T21:12:05.956Z,16.83
2019-05-19T21:14:34.374Z,16.62
2019-05-19T21:17:02.853Z,16.49
2019-05-19T21:19:31.271Z,16.41
2019-05-19T21:21:59.687Z,16.68
2019-05-19T21:24:28.134Z,16.88
2019-05-19T21:26:56.609Z,16.59
2019-05-19T21:29:24.974Z,16.45
2019-05-19T21:31:53.384Z,16.36
2019-05-19T21:34:21.803Z,16.22
2019-05-19T21:36:50.235Z,16.14
2019-05-19T21:39:18.680Z,16.37
2019-05-19T21:41:47.100Z,16.24
2019-05-19T21:44:15.519Z,16.00
2019-05-19T21:46:43.932Z,15.94
2019-05-19T21:49:12.359Z,15.95
2019-05-19T21:51:40.813Z,15.88
2019-05-19T21:54:09.253Z,15.93
2019-05-19T21:56:37.690Z,15.76
2019-05-19T21:59:06.193Z,15.66
2019-05-19T22:01:34.676Z,15.65
2019-05-19T22:04:03.124Z,15.68
2019-05-19T22:06:33.159Z,15.72
2019-05-19T22:09:01.615Z,15.71
2019-05-19T22:11:30.038Z,15.70
2019-05-19T22:13:58.536Z,15.69
2019-05-19T22:16:26.949Z,15.69
2019-05-19T22:18:55.417Z,15.56
2019-05-19T22:21:23.835Z,15.54
2019-05-19T22:23:52.267Z,15.39
2019-05-19T22:26:20.702Z,15.26
2019-05-19T22:28:49.144Z,15.25
2019-05-19T22:31:19.741Z,15.12
2019-05-19T22:33:47.715Z,15.11
2019-05-19T22:36:17.656Z,15.05
2019-05-19T22:38:46.946Z,15.00
2019-05-19T22:41:15.380Z,14.95
2019-05-19T22:43:43.809Z,14.79
2019-05-19T22:46:12.230Z,14.83
2019-05-19T22:48:40.672Z,14.83
2019-05-19T22:51:09.141Z,14.89
2019-05-19T22:53:37.585Z,14.98
2019-05-19T22:56:06.098Z,14.99
2019-05-19T22:58:34.543Z,14.91
2019-05-19T23:01:02.978Z,14.86
2019-05-19T23:03:32.599Z,14.84
2019-05-19T23:06:01.038Z,14.75
2019-05-19T23:08:30.636Z,14.78
2019-05-19T23:10:59.032Z,14.70
2019-05-19T23:13:27.460Z,14.65
2019-05-19T23:15:55.957Z,14.54
2019-05-19T23:18:25.591Z,14.62
2019-05-19T23:20:54.145Z,14.63
2019-05-19T23:23:22.570Z,14.56
2019-05-19T23:25:51.003Z,14.51
2019-05-19T23:28:19.409Z,14.52
2019-05-19T23:30:47.848Z,14.40
2019-05-19T23:33:16.277Z,14.39
2019-05-19T23:35:44.702Z,14.36
2019-05-19T23:38:13.115Z,14.37
2019-05-19T23:40:41.549Z,14.21
2019-05-19T23:43:12.925Z,14.11
2019-05-19T23:45:41.448Z,14.23
2019-05-19T23:48:09.878Z,14.25
2019-05-19T23:50:38.319Z,14.16
2019-05-19T23:53:06.746Z,14.07
2019-05-19T23:55:35.175Z,14.01
2019-05-19T23:58:03.586Z,14.04
